createdAt,value
2022-09-22T00:01:30.374Z,2.95
2022-09-22T00:04:00.254Z,2.80
2022-09-22T00:06:29.641Z,3.15
2022-09-22T00:09:00.606Z,5.30
2022-09-22T00:11:31.042Z,4.57
2022-09-22T00:14:02.235Z,4.20
2022-09-22T00:16:33.956Z,4.20
2022-09-22T00:19:01.785Z,4.40
2022-09-22T00:21:30.997Z,3.80
2022-09-22T00:24:01.523Z,4.28
2022-09-22T00:26:29.252Z,3.67
2022-09-22T00:28:57.306Z,2.90
2022-09-22T00:31:26.954Z,3.58
2022-09-22T00:33:55.377Z,3.85
2022-09-22T00:36:26.604Z,4.00
2022-09-22T00:38:56.360Z,5.00
2022-09-22T00:41:26.375Z,4.57
2022-09-22T00:44:33.958Z,4.43
2022-09-22T00:47:09.294Z,4.87
2022-09-22T00:49:45.153Z,4.68
2022-09-22T00:52:17.012Z,3.75
2022-09-22T00:54:44.737Z,4.20
2022-09-22T00:57:16.271Z,5.78
2022-09-22T00:59:46.302Z,4.40
2022-09-22T01:02:15.952Z,5.55
2022-09-22T01:04:43.694Z,3.30
2022-09-22T01:07:13.838Z,3.40
2022-09-22T01:09:41.736Z,2.95
2022-09-22T01:12:09.777Z,3.42
2022-09-22T01:15:04.955Z,3.65
2022-09-22T01:17:42.046Z,3.50
2022-09-22T01:20:41.812Z,3.30
2022-09-22T01:23:43.390Z,2.77
2022-09-22T01:26:32.206Z,4.10
2022-09-22T01:29:19.391Z,3.38
2022-09-22T01:31:55.427Z,2.85
2022-09-22T01:34:31.373Z,3.10
2022-09-22T01:37:06.814Z,2.88
2022-09-22T01:39:40.267Z,4.20
2022-09-22T01:42:12.573Z,4.32
2022-09-22T01:44:49.154Z,5.60
2022-09-22T01:47:22.696Z,4.00
2022-09-22T01:49:54.196Z,4.22
2022-09-22T01:52:27.161Z,4.05
2022-09-22T01:54:58.995Z,4.55
2022-09-22T01:57:38.004Z,3.20
2022-09-22T02:00:09.671Z,2.40
2022-09-22T02:02:48.565Z,2.83
2022-09-22T02:05:21.854Z,3.22
2022-09-22T02:07:53.275Z,3.87
2022-09-22T02:10:26.846Z,3.22
2022-09-22T02:12:55.425Z,3.70
2022-09-22T02:15:41.616Z,3.42
2022-09-22T02:18:16.036Z,3.30
2022-09-22T02:20:43.780Z,3.63
2022-09-22T02:23:11.550Z,3.90
2022-09-22T02:25:41.588Z,2.80
2022-09-22T02:28:11.303Z,3.53
2022-09-22T02:30:39.407Z,3.43
2022-09-22T02:33:07.696Z,4.47
2022-09-22T02:35:40.361Z,3.85
2022-09-22T02:38:14.282Z,4.50
2022-09-22T02:40:47.471Z,3.33
2022-09-22T02:43:23.095Z,4.38
2022-09-22T02:45:58.482Z,4.13
2022-09-22T02:48:29.402Z,4.38
2022-09-22T02:50:58.815Z,3.33
2022-09-22T02:53:26.510Z,2.60
2022-09-22T02:55:54.234Z,2.70
2022-09-22T02:58:21.910Z,2.93
2022-09-22T03:00:49.562Z,3.80
2022-09-22T03:03:17.250Z,3.05
2022-09-22T03:05:44.960Z,2.92
2022-09-22T03:08:13.990Z,3.50
2022-09-22T03:10:41.722Z,3.10
2022-09-22T03:13:16.317Z,3.65
2022-09-22T03:15:45.135Z,3.83
2022-09-22T03:18:13.216Z,4.40
2022-09-22T03:20:40.922Z,3.67
2022-09-22T03:23:08.921Z,4.25
2022-09-22T03:25:38.001Z,4.25
2022-09-22T03:28:08.240Z,4.15
2022-09-22T03:30:37.167Z,5.57
2022-09-22T03:33:05.038Z,4.13
2022-09-22T03:35:32.806Z,4.32
2022-09-22T03:38:00.530Z,3.40
2022-09-22T03:40:28.411Z,4.82
2022-09-22T03:42:57.537Z,3.50
2022-09-22T03:45:25.447Z,4.60
2022-09-22T03:47:54.563Z,4.73
2022-09-22T03:50:22.549Z,4.63
2022-09-22T03:52:50.215Z,3.53
2022-09-22T03:55:18.422Z,3.00
2022-09-22T03:57:46.098Z,3.37
2022-09-22T04:00:16.996Z,2.80
2022-09-22T04:02:44.840Z,4.53
2022-09-22T04:05:14.583Z,4.27
2022-09-22T04:07:44.997Z,3.20
2022-09-22T04:10:12.790Z,2.55
2022-09-22T04:12:42.900Z,4.28
2022-09-22T04:15:10.904Z,3.53
2022-09-22T04:17:39.946Z,3.37
2022-09-22T04:20:11.273Z,3.85
2022-09-22T04:22:39.634Z,3.88
2022-09-22T04:25:08.971Z,4.30
2022-09-22T04:27:38.757Z,4.13
2022-09-22T04:30:07.627Z,5.17
2022-09-22T04:32:35.308Z,3.77
2022-09-22T04:35:04.472Z,4.13
2022-09-22T04:37:32.155Z,3.72
2022-09-22T04:40:00.095Z,3.90
2022-09-22T04:42:29.878Z,3.97
2022-09-22T04:45:01.842Z,3.42
2022-09-22T04:47:30.085Z,3.85
2022-09-22T04:49:57.998Z,3.60
2022-09-22T04:52:27.472Z,4.77
2022-09-22T04:54:55.131Z,4.40
2022-09-22T04:57:22.799Z,3.42
2022-09-22T04:59:50.478Z,5.50
2022-09-22T05:02:19.066Z,3.95
2022-09-22T05:04:49.110Z,6.70
2022-09-22T05:07:16.875Z,4.38
2022-09-22T05:09:46.093Z,6.05
2022-09-22T05:12:13.805Z,6.18
2022-09-22T05:14:43.566Z,6.38
2022-09-22T05:17:11.275Z,6.47
2022-09-22T05:19:38.996Z,4.70
2022-09-22T05:22:06.696Z,4.97
2022-09-22T05:24:34.379Z,4.60
2022-09-22T05:27:04.725Z,4.63
2022-09-22T05:29:32.531Z,3.60
2022-09-22T05:32:00.600Z,4.77
2022-09-22T05:34:28.401Z,5.95
2022-09-22T05:36:56.089Z,3.30
2022-09-22T05:39:23.847Z,3.70
2022-09-22T05:41:53.673Z,3.83
2022-09-22T05:44:23.574Z,3.55
2022-09-22T05:46:51.289Z,3.30
2022-09-22T05:49:18.980Z,4.38
2022-09-22T05:51:47.086Z,3.67
2022-09-22T05:54:16.586Z,4.43
2022-09-22T05:56:49.199Z,3.72
2022-09-22T05:59:16.944Z,4.10
2022-09-22T06:01:46.148Z,3.90
2022-09-22T06:04:14.070Z,3.00
2022-09-22T06:06:42.395Z,3.63
2022-09-22T06:09:10.615Z,3.65
2022-09-22T06:11:38.880Z,3.10
2022-09-22T06:14:06.978Z,3.17
2022-09-22T06:16:35.460Z,3.50
2022-09-22T06:19:05.467Z,3.40
2022-09-22T06:21:33.679Z,3.30
2022-09-22T06:24:02.206Z,3.03
2022-09-22T06:26:30.199Z,4.00
2022-09-22T06:28:58.561Z,2.85
2022-09-22T06:31:26.702Z,3.20
2022-09-22T06:33:54.811Z,4.45
2022-09-22T06:36:30.391Z,3.70
2022-09-22T06:38:59.383Z,3.60
2022-09-22T06:41:27.842Z,4.15
2022-09-22T06:44:03.215Z,4.47
2022-09-22T06:46:34.079Z,3.85
2022-09-22T06:49:03.359Z,6.17
2022-09-22T06:51:34.244Z,3.28
2022-09-22T06:54:04.176Z,3.65
2022-09-22T06:56:37.086Z,11.82
2022-09-22T06:59:12.942Z,4.97
2022-09-22T07:01:43.105Z,5.72
2022-09-22T07:04:12.329Z,5.70
2022-09-22T07:06:42.769Z,6.53
2022-09-22T07:09:12.501Z,5.10
2022-09-22T07:11:40.745Z,6.75
2022-09-22T07:14:11.845Z,5.63
2022-09-22T07:16:41.000Z,7.78
2022-09-22T07:19:09.229Z,7.65
2022-09-22T07:21:37.956Z,6.32
2022-09-22T07:24:09.216Z,6.60
2022-09-22T07:26:39.788Z,5.50
2022-09-22T07:29:11.839Z,7.43
2022-09-22T07:31:41.511Z,5.32
2022-09-22T07:34:10.270Z,5.93
2022-09-22T07:36:39.141Z,6.30
2022-09-22T07:39:12.243Z,5.67
2022-09-22T07:41:46.783Z,5.90
2022-09-22T07:44:33.714Z,6.18
2022-09-22T07:47:03.119Z,7.28
2022-09-22T07:49:31.483Z,6.87
2022-09-22T07:51:59.601Z,6.53
2022-09-22T07:54:30.761Z,11.43
2022-09-22T07:56:59.342Z,7.80
2022-09-22T07:59:27.833Z,5.45
2022-09-22T08:01:55.843Z,5.35
2022-09-22T08:04:26.324Z,6.13
2022-09-22T08:06:56.360Z,7.43
2022-09-22T08:09:25.425Z,7.05
2022-09-22T08:11:55.145Z,8.55
2022-09-22T08:14:23.995Z,8.73
2022-09-22T08:16:54.021Z,8.32
2022-09-22T08:19:25.039Z,7.07
2022-09-22T08:21:55.062Z,5.80
2022-09-22T08:24:24.051Z,8.13
2022-09-22T08:26:56.284Z,8.85
2022-09-22T08:29:25.328Z,5.90
2022-09-22T08:31:54.273Z,5.95
2022-09-22T08:34:23.171Z,5.90
2022-09-22T08:36:53.695Z,5.38
2022-09-22T08:39:21.523Z,6.97
2022-09-22T08:42:08.451Z,5.40
2022-09-22T08:44:42.098Z,4.37
2022-09-22T08:47:37.828Z,5.20
2022-09-22T08:50:36.334Z,3.95
2022-09-22T08:53:10.013Z,3.97
2022-09-22T08:55:43.019Z,3.80
2022-09-22T08:58:24.531Z,3.27
2022-09-22T09:01:01.501Z,3.67
2022-09-22T09:03:39.541Z,3.80
2022-09-22T09:06:14.188Z,3.23
2022-09-22T09:09:12.494Z,3.00
2022-09-22T09:11:58.070Z,1.85
2022-09-22T09:14:50.499Z,2.03
2022-09-22T09:17:22.549Z,2.47
2022-09-22T09:19:55.933Z,3.33
2022-09-22T09:22:28.222Z,1.50
2022-09-22T09:27:54.128Z,1.93
2022-09-22T09:30:23.863Z,1.42
2022-09-22T09:32:57.618Z,2.85
2022-09-22T09:35:41.255Z,2.00
2022-09-22T09:38:14.695Z,2.45
2022-09-22T09:40:43.120Z,1.58
2022-09-22T09:43:12.068Z,2.45
2022-09-22T09:45:54.244Z,1.60
2022-09-22T09:48:32.254Z,2.50
2022-09-22T09:51:05.342Z,2.08
2022-09-22T09:53:41.086Z,1.87
2022-09-22T09:56:22.378Z,1.38
2022-09-22T09:59:15.370Z,1.65
2022-09-22T10:01:48.169Z,1.50
2022-09-22T10:04:22.517Z,1.37
2022-09-22T10:06:50.746Z,1.60
2022-09-22T10:09:27.820Z,1.37
2022-09-22T10:12:00.700Z,1.45
2022-09-22T10:14:32.532Z,1.10
2022-09-22T10:17:03.953Z,3.13
2022-09-22T10:19:34.644Z,1.10
2022-09-22T10:22:25.293Z,2.28
2022-09-22T10:24:59.254Z,1.50
2022-09-22T10:27:28.862Z,2.47
2022-09-22T10:30:23.792Z,1.10
2022-09-22T10:33:11.739Z,0.82
2022-09-22T10:35:41.004Z,2.20
2022-09-22T10:38:16.507Z,1.95
2022-09-22T10:40:48.462Z,2.10
2022-09-22T10:43:37.021Z,1.83
2022-09-22T10:46:40.534Z,2.20
2022-09-22T10:49:14.447Z,1.60
2022-09-22T10:51:59.700Z,1.48
2022-09-22T10:54:48.238Z,1.92
2022-09-22T10:57:27.032Z,1.73
2022-09-22T11:00:12.048Z,2.88
2022-09-22T11:03:09.717Z,1.70
2022-09-22T11:06:09.005Z,1.13
2022-09-22T11:09:03.026Z,1.60
2022-09-22T11:11:55.427Z,2.00
2022-09-22T11:14:37.346Z,1.30
2022-09-22T11:17:18.384Z,1.70
2022-09-22T11:20:23.194Z,2.70
2022-09-22T11:23:08.884Z,2.15
2022-09-22T11:25:50.566Z,1.55
2022-09-22T11:28:34.959Z,1.83
2022-09-22T11:31:05.981Z,1.10
2022-09-22T11:34:03.686Z,1.10
2022-09-22T11:36:56.237Z,1.17
2022-09-22T11:39:46.245Z,2.05
2022-09-22T11:42:21.469Z,2.63
2022-09-22T11:45:01.968Z,1.50
2022-09-22T11:47:43.874Z,2.07
2022-09-22T11:50:40.182Z,2.67
2022-09-22T11:53:20.904Z,1.50
2022-09-22T11:56:04.946Z,2.40
2022-09-22T11:58:34.545Z,2.05
2022-09-22T12:01:12.304Z,1.20
2022-09-22T12:03:46.113Z,2.20
2022-09-22T12:06:18.748Z,1.30
2022-09-22T12:11:28.656Z,1.70
2022-09-22T12:13:58.923Z,1.20
2022-09-22T12:16:41.525Z,1.80
2022-09-22T12:19:22.337Z,1.00
2022-09-22T12:21:59.663Z,1.30
2022-09-22T12:24:27.452Z,1.83
2022-09-22T12:26:56.738Z,1.10
2022-09-22T12:29:28.441Z,1.53
2022-09-22T12:31:58.994Z,1.50
2022-09-22T12:34:30.544Z,2.15
2022-09-22T12:37:01.628Z,0.88
2022-09-22T12:39:32.286Z,1.70
2022-09-22T12:42:04.183Z,1.70
2022-09-22T12:44:36.140Z,1.40
2022-09-22T12:47:07.139Z,1.20
2022-09-22T12:49:35.254Z,1.70
2022-09-22T12:52:03.195Z,1.08
2022-09-22T12:54:48.972Z,1.15
2022-09-22T12:57:31.371Z,1.33
2022-09-22T13:00:13.662Z,1.25
2022-09-22T13:02:43.353Z,1.00
2022-09-22T13:05:36.747Z,2.25
2022-09-22T13:08:04.778Z,1.98
2022-09-22T13:11:00.034Z,1.40
2022-09-22T13:13:40.596Z,0.90
2022-09-22T13:16:37.383Z,1.27
2022-09-22T13:19:10.874Z,0.73
2022-09-22T13:21:41.543Z,1.05
2022-09-22T13:24:19.526Z,1.40
2022-09-22T13:26:47.303Z,0.98
2022-09-22T13:29:18.402Z,1.30
2022-09-22T13:31:47.732Z,1.30
2022-09-22T13:34:20.351Z,0.90
2022-09-22T13:36:48.820Z,4.10
2022-09-22T13:39:20.544Z,1.17
2022-09-22T13:41:51.428Z,1.27
2022-09-22T13:44:25.026Z,1.20
2022-09-22T13:46:53.839Z,1.20
2022-09-22T13:49:30.845Z,0.90
2022-09-22T13:52:02.315Z,1.20
2022-09-22T13:54:33.649Z,0.75
2022-09-22T13:57:04.522Z,1.20
2022-09-22T13:59:40.534Z,0.85
2022-09-22T14:02:12.675Z,1.35
2022-09-22T14:05:02.732Z,1.63
2022-09-22T14:07:38.343Z,1.57
2022-09-22T14:10:14.920Z,1.08
2022-09-22T14:12:42.748Z,1.40
2022-09-22T14:15:43.417Z,1.20
2022-09-22T14:18:21.127Z,1.03
2022-09-22T14:20:49.450Z,2.17
2022-09-22T14:23:23.816Z,1.80
2022-09-22T14:25:51.601Z,1.37
2022-09-22T14:28:23.419Z,0.70
2022-09-22T14:30:52.906Z,0.80
2022-09-22T14:33:25.614Z,1.23
2022-09-22T14:36:01.751Z,0.90
2022-09-22T14:38:34.253Z,0.73
2022-09-22T14:41:02.820Z,2.25
2022-09-22T14:43:35.568Z,2.57
2022-09-22T14:46:21.854Z,0.90
2022-09-22T14:48:49.673Z,0.98
2022-09-22T14:51:20.652Z,0.93
2022-09-22T14:53:51.546Z,0.85
2022-09-22T14:56:27.321Z,2.08
2022-09-22T14:58:57.845Z,0.90
2022-09-22T15:01:47.604Z,1.45
2022-09-22T15:04:18.757Z,1.20
2022-09-22T15:06:48.191Z,1.00
2022-09-22T15:09:24.716Z,1.40
2022-09-22T15:11:54.712Z,1.00
2022-09-22T15:14:42.408Z,1.17
2022-09-22T15:17:57.299Z,0.98
2022-09-22T15:20:29.003Z,2.00
2022-09-22T15:22:58.777Z,1.40
2022-09-22T15:25:26.771Z,2.90
2022-09-22T15:27:54.739Z,1.10
2022-09-22T15:30:23.029Z,1.55
2022-09-22T15:32:52.730Z,2.60
2022-09-22T15:35:20.982Z,1.67
2022-09-22T15:37:50.632Z,1.33
2022-09-22T15:40:21.261Z,1.50
2022-09-22T15:43:09.024Z,1.00
2022-09-22T15:45:38.993Z,1.30
2022-09-22T15:48:10.057Z,1.60
2022-09-22T15:50:37.759Z,0.95
2022-09-22T15:53:05.453Z,2.17
2022-09-22T15:55:34.343Z,5.70
2022-09-22T15:58:07.346Z,2.50
2022-09-22T16:00:36.478Z,2.03
2022-09-22T16:03:15.438Z,1.25
2022-09-22T16:05:44.810Z,1.40
2022-09-22T16:08:16.507Z,1.45
2022-09-22T16:10:45.322Z,2.43
2022-09-22T16:13:14.057Z,1.33
2022-09-22T16:15:41.780Z,1.30
2022-09-22T16:18:10.852Z,2.00
2022-09-22T16:20:40.720Z,1.67
2022-09-22T16:23:08.439Z,3.00
2022-09-22T16:25:36.466Z,1.63
2022-09-22T16:28:04.744Z,1.00
2022-09-22T16:30:32.519Z,0.88
2022-09-22T16:33:00.775Z,1.08
2022-09-22T16:35:30.089Z,1.15
2022-09-22T16:38:00.145Z,1.58
2022-09-22T16:40:30.688Z,1.98
2022-09-22T16:42:58.514Z,1.40
2022-09-22T16:45:43.854Z,1.08
2022-09-22T16:48:14.282Z,1.45
2022-09-22T16:50:43.380Z,1.33
2022-09-22T16:53:11.091Z,1.80
2022-09-22T16:55:38.849Z,0.90
2022-09-22T16:58:13.092Z,1.63
2022-09-22T17:00:40.860Z,1.27
2022-09-22T17:03:11.166Z,1.95
2022-09-22T17:05:39.434Z,1.70
2022-09-22T17:08:09.150Z,1.70
2022-09-22T17:10:36.908Z,1.60
2022-09-22T17:13:05.178Z,2.40
2022-09-22T17:15:35.664Z,1.48
2022-09-22T17:18:04.632Z,2.27
2022-09-22T17:20:34.930Z,1.40
2022-09-22T17:23:02.675Z,1.98
2022-09-22T17:25:31.735Z,1.85
2022-09-22T17:27:59.489Z,2.65
2022-09-22T17:30:28.298Z,2.13
2022-09-22T17:32:56.028Z,1.23
2022-09-22T17:35:23.746Z,1.07
2022-09-22T17:37:53.413Z,1.20
2022-09-22T17:40:21.203Z,3.37
2022-09-22T17:42:50.296Z,3.70
2022-09-22T17:45:20.134Z,4.95
2022-09-22T17:48:04.976Z,4.78
2022-09-22T17:50:50.415Z,11.05
2022-09-22T17:53:35.616Z,20.97
2022-09-22T17:56:05.138Z,15.50
2022-09-22T17:58:34.235Z,10.77
2022-09-22T18:01:01.967Z,8.20
2022-09-22T18:03:29.673Z,6.03
2022-09-22T18:05:58.261Z,4.65
2022-09-22T18:08:26.160Z,3.53
2022-09-22T18:10:54.479Z,3.60
2022-09-22T18:13:22.241Z,2.33
2022-09-22T18:15:52.258Z,2.00
2022-09-22T18:18:20.083Z,1.60
2022-09-22T18:20:48.335Z,2.20
2022-09-22T18:23:16.647Z,2.97
2022-09-22T18:25:46.433Z,3.00
2022-09-22T18:28:14.142Z,2.25
2022-09-22T18:30:41.950Z,2.22
2022-09-22T18:33:12.898Z,2.38
2022-09-22T18:35:44.282Z,1.77
2022-09-22T18:38:15.987Z,1.70
2022-09-22T18:40:43.884Z,1.73
2022-09-22T18:43:11.600Z,2.30
2022-09-22T18:45:41.510Z,2.47
2022-09-22T18:48:09.200Z,2.60
2022-09-22T18:50:40.936Z,2.47
2022-09-22T18:53:10.826Z,1.65
2022-09-22T18:55:38.929Z,1.90
2022-09-22T18:58:06.603Z,1.50
2022-09-22T19:00:34.294Z,2.37
2022-09-22T19:03:02.093Z,1.98
2022-09-22T19:05:29.848Z,2.20
2022-09-22T19:08:00.379Z,1.77
2022-09-22T19:10:28.130Z,2.20
2022-09-22T19:12:55.846Z,1.47
2022-09-22T19:15:25.239Z,1.55
2022-09-22T19:17:52.951Z,1.43
2022-09-22T19:20:23.798Z,1.60
2022-09-22T19:22:52.237Z,1.60
2022-09-22T19:25:22.447Z,2.22
2022-09-22T19:27:50.321Z,2.10
2022-09-22T19:30:22.397Z,2.88
2022-09-22T19:32:51.580Z,3.13
2022-09-22T19:35:20.273Z,2.67
2022-09-22T19:37:51.623Z,2.25
2022-09-22T19:40:24.374Z,2.75
2022-09-22T19:42:52.950Z,2.60
2022-09-22T19:45:21.129Z,2.30
2022-09-22T19:47:48.891Z,2.67
2022-09-22T19:50:16.724Z,2.97
2022-09-22T19:52:44.420Z,3.42
2022-09-22T19:55:12.405Z,3.20
2022-09-22T19:57:42.055Z,3.63
2022-09-22T20:00:12.309Z,4.03
2022-09-22T20:02:40.074Z,3.05
2022-09-22T20:05:21.597Z,2.93
2022-09-22T20:07:50.539Z,3.00
2022-09-22T20:10:22.402Z,2.20
2022-09-22T20:12:52.504Z,2.03
2022-09-22T20:15:20.996Z,2.30
2022-09-22T20:17:48.690Z,2.33
2022-09-22T20:20:19.637Z,3.23
2022-09-22T20:22:48.638Z,3.20
2022-09-22T20:25:25.040Z,3.83
2022-09-22T20:27:54.691Z,4.15
2022-09-22T20:30:22.632Z,4.97
2022-09-22T20:32:51.478Z,2.78
2022-09-22T20:35:21.721Z,3.90
2022-09-22T20:37:49.594Z,3.87
2022-09-22T20:40:22.963Z,3.10
2022-09-22T20:42:53.064Z,2.92
2022-09-22T20:45:24.775Z,2.50
2022-09-22T20:47:52.645Z,2.13
2022-09-22T20:50:21.122Z,3.40
2022-09-22T20:52:48.888Z,4.80
2022-09-22T20:55:17.013Z,3.80
2022-09-22T20:57:46.832Z,3.50
2022-09-22T21:00:16.245Z,5.00
2022-09-22T21:02:45.448Z,3.70
2022-09-22T21:05:13.145Z,2.22
2022-09-22T21:07:40.923Z,3.55
2022-09-22T21:10:41.195Z,2.70
2022-09-22T21:13:09.479Z,3.13
2022-09-22T21:15:37.224Z,3.20
2022-09-22T21:18:06.400Z,3.25
2022-09-22T21:20:36.438Z,3.08
2022-09-22T21:23:04.103Z,2.60
2022-09-22T21:25:31.853Z,3.60
2022-09-22T21:28:02.147Z,2.78
2022-09-22T21:30:29.890Z,3.17
2022-09-22T21:32:57.559Z,2.35
2022-09-22T21:35:26.581Z,3.50
2022-09-22T21:37:56.922Z,2.58
2022-09-22T21:40:24.919Z,3.88
2022-09-22T21:42:53.076Z,4.22
2022-09-22T21:45:21.045Z,3.70
2022-09-22T21:47:50.964Z,3.92
2022-09-22T21:50:18.654Z,5.20
2022-09-22T21:52:47.891Z,4.47
2022-09-22T21:55:15.816Z,3.08
2022-09-22T21:57:43.525Z,3.60
2022-09-22T22:00:12.244Z,3.78
2022-09-22T22:02:54.095Z,3.05
2022-09-22T22:05:21.849Z,2.70
2022-09-22T22:07:50.921Z,3.05
2022-09-22T22:10:19.075Z,3.70
2022-09-22T22:12:49.190Z,3.10
2022-09-22T22:15:17.124Z,3.33
2022-09-22T22:17:44.822Z,3.35
2022-09-22T22:20:12.549Z,4.17
2022-09-22T22:22:40.234Z,4.10
2022-09-22T22:25:17.791Z,4.05
2022-09-22T22:27:47.528Z,5.25
2022-09-22T22:30:15.443Z,4.90
2022-09-22T22:32:43.234Z,3.20
2022-09-22T22:35:13.047Z,2.73
2022-09-22T22:37:40.759Z,2.97
2022-09-22T22:40:10.555Z,4.32
2022-09-22T22:42:38.299Z,4.68
2022-09-22T22:45:06.778Z,6.50
2022-09-22T22:47:36.781Z,5.60
2022-09-22T22:50:06.315Z,3.92
2022-09-22T22:52:34.042Z,4.60
2022-09-22T22:55:01.785Z,5.03
2022-09-22T22:57:30.919Z,4.68
2022-09-22T22:59:58.604Z,3.57
2022-09-22T23:02:26.298Z,3.03
2022-09-22T23:04:54.236Z,5.28
2022-09-22T23:07:21.984Z,4.60
2022-09-22T23:10:05.919Z,4.45
2022-09-22T23:12:40.259Z,5.57
2022-09-22T23:15:10.463Z,5.47
2022-09-22T23:17:40.658Z,5.35
2022-09-22T23:20:09.591Z,4.72
2022-09-22T23:22:37.327Z,4.60
2022-09-22T23:25:07.915Z,4.13
2022-09-22T23:27:36.987Z,3.75
2022-09-22T23:30:05.295Z,5.23
2022-09-22T23:32:33.056Z,5.20
2022-09-22T23:35:00.777Z,4.60
2022-09-22T23:37:28.583Z,6.07
2022-09-22T23:39:56.319Z,4.25
2022-09-22T23:42:26.079Z,4.53
2022-09-22T23:44:55.089Z,3.95
2022-09-22T23:47:22.786Z,4.55
2022-09-22T23:49:50.452Z,4.75
2022-09-22T23:52:18.153Z,6.70
2022-09-22T23:54:47.928Z,5.70
2022-09-22T23:57:15.609Z,6.30
2022-09-22T23:59:43.380Z,4.78
